createdAt,value
2022-11-12T00:04:05.313Z,101883.88
2022-11-12T00:09:50.338Z,101883.98
2022-11-12T00:15:32.571Z,101901.49
2022-11-12T00:21:10.425Z,101911.63
2022-11-12T00:26:41.534Z,101907.20
2022-11-12T00:32:12.820Z,101909.09
2022-11-12T00:37:36.537Z,101909.70
2022-11-12T00:43:10.388Z,101910.17
2022-11-12T00:48:42.373Z,101911.70
2022-11-12T00:54:19.411Z,101908.69
2022-11-12T00:59:45.270Z,101912.02
2022-11-12T01:05:14.763Z,101914.86
2022-11-12T01:10:45.660Z,101908.75
2022-11-12T01:16:30.082Z,101905.31
2022-11-12T01:21:55.301Z,101911.99
2022-11-12T01:27:24.057Z,101910.99
2022-11-12T01:32:50.245Z,101908.73
2022-11-12T01:38:19.978Z,101904.08
2022-11-12T01:44:06.558Z,101905.13
2022-11-12T01:49:34.177Z,101907.02
2022-11-12T01:55:08.265Z,101907.45
2022-11-12T02:00:30.256Z,101907.48
2022-11-12T02:05:57.808Z,101902.73
2022-11-12T02:11:21.387Z,101899.39
2022-11-12T02:16:45.722Z,101897.66
2022-11-12T02:22:11.332Z,101893.23
2022-11-12T02:27:35.337Z,101886.64
2022-11-12T02:32:59.152Z,101890.77
2022-11-12T02:38:28.394Z,101900.98
2022-11-12T02:43:56.721Z,101899.72
2022-11-12T02:49:18.666Z,101894.42
2022-11-12T02:54:41.042Z,101898.25
2022-11-12T03:00:12.509Z,101894.61
2022-11-12T03:05:37.898Z,101894.47
2022-11-12T03:11:09.800Z,101900.05
2022-11-12T03:16:36.635Z,101899.41
2022-11-12T03:21:58.987Z,101899.18
2022-11-12T03:27:22.822Z,101896.45
2022-11-12T03:32:48.923Z,101893.95
2022-11-12T03:38:12.529Z,101895.55
2022-11-12T03:43:44.043Z,101898.85
2022-11-12T03:49:12.537Z,101896.04
2022-11-12T03:54:36.198Z,101897.02
2022-11-12T03:59:58.832Z,101898.48
2022-11-12T04:05:44.766Z,101893.67
2022-11-12T04:11:19.920Z,101898.61
2022-11-12T04:17:09.431Z,101895.38
2022-11-12T04:22:32.544Z,101901.12
2022-11-12T04:27:57.934Z,101897.85
2022-11-12T04:33:29.430Z,101899.48
2022-11-12T04:38:54.522Z,101898.81
2022-11-12T04:44:37.637Z,101891.91
2022-11-12T04:50:00.922Z,101888.04
2022-11-12T04:55:23.262Z,101886.24
2022-11-12T05:00:45.157Z,101884.48
2022-11-12T05:06:30.337Z,101888.60
2022-11-12T05:11:53.140Z,101894.67
2022-11-12T05:17:15.120Z,101902.86
2022-11-12T05:22:45.673Z,101900.33
2022-11-12T05:28:12.741Z,101906.85
2022-11-12T05:33:34.923Z,101910.10
2022-11-12T05:38:57.123Z,101913.98
2022-11-12T05:44:19.727Z,101913.23
2022-11-12T05:49:41.574Z,101918.96
2022-11-12T05:55:08.187Z,101926.12
2022-11-12T06:00:31.316Z,101929.65
2022-11-12T06:05:53.572Z,101928.43
2022-11-12T06:11:15.904Z,101936.64
2022-11-12T06:16:38.714Z,101937.77
2022-11-12T06:22:00.787Z,101945.59
2022-11-12T06:27:24.345Z,101954.38
2022-11-12T06:32:51.139Z,101956.41
2022-11-12T06:38:13.077Z,101953.30
2022-11-12T06:43:35.607Z,101956.23
2022-11-12T06:48:57.650Z,101960.66
2022-11-12T06:54:20.189Z,101962.70
2022-11-12T06:59:42.690Z,101967.98
2022-11-12T07:05:05.071Z,101973.99
2022-11-12T07:10:29.115Z,101975.61
2022-11-12T07:15:51.461Z,101971.64
2022-11-12T07:21:16.941Z,101971.55
2022-11-12T07:26:48.799Z,101979.08
2022-11-12T07:32:12.426Z,101981.77
2022-11-12T07:37:35.634Z,101979.34
2022-11-12T07:42:59.263Z,101977.27
2022-11-12T07:48:21.089Z,101972.05
2022-11-12T07:53:46.260Z,101973.79
2022-11-12T07:59:08.294Z,101972.05
2022-11-12T08:04:38.845Z,101971.60
2022-11-12T08:10:01.206Z,101969.55
2022-11-12T08:15:23.818Z,101976.14
2022-11-12T08:20:49.221Z,101979.23
2022-11-12T08:26:19.399Z,101981.34
2022-11-12T08:31:41.513Z,101990.16
2022-11-12T08:37:05.805Z,101996.77
2022-11-12T08:42:29.027Z,101996.27
2022-11-12T08:47:51.271Z,101992.70
2022-11-12T08:53:14.303Z,101987.54
2022-11-12T08:58:52.545Z,101986.64
2022-11-12T09:04:33.570Z,101986.39
2022-11-12T09:09:55.577Z,101989.16
2022-11-12T09:15:36.771Z,101985.60
2022-11-12T09:21:03.749Z,101986.18
2022-11-12T09:26:25.754Z,101982.33
2022-11-12T09:31:52.065Z,101976.85
2022-11-12T09:37:18.904Z,101983.30
2022-11-12T09:42:50.448Z,101988.93
2022-11-12T09:48:25.841Z,101992.88
2022-11-12T09:54:21.315Z,101995.98
2022-11-12T09:59:52.438Z,101989.30
2022-11-12T10:05:20.610Z,101993.69
2022-11-12T10:10:53.417Z,101995.34
2022-11-12T10:16:45.869Z,101992.06
2022-11-12T10:22:41.519Z,101992.41
2022-11-12T10:28:18.098Z,101989.70
2022-11-12T10:33:43.442Z,101988.02
2022-11-12T10:39:21.712Z,101987.83
2022-11-12T10:44:56.502Z,101971.02
2022-11-12T10:50:38.663Z,101970.88
2022-11-12T10:56:23.213Z,101979.02
2022-11-12T11:02:23.723Z,101977.45
2022-11-12T11:08:00.420Z,101976.27
2022-11-12T11:13:34.597Z,101977.31
2022-11-12T11:19:10.745Z,101973.13
2022-11-12T11:25:00.125Z,101971.08
2022-11-12T11:30:51.531Z,101970.90
2022-11-12T11:36:25.480Z,101968.56
2022-11-12T11:42:26.694Z,101971.45
2022-11-12T11:48:18.833Z,101959.63
2022-11-12T11:54:16.123Z,101961.63
2022-11-12T12:00:12.387Z,101958.05
2022-11-12T12:05:49.191Z,101958.67
2022-11-12T12:11:44.435Z,101958.30
2022-11-12T12:17:44.646Z,101955.19
2022-11-12T12:23:41.243Z,101958.31
2022-11-12T12:29:16.258Z,101960.67
2022-11-12T12:35:01.452Z,101962.41
2022-11-12T12:41:28.112Z,101958.16
2022-11-12T12:47:20.749Z,101957.73
2022-11-12T12:53:19.439Z,101953.95
2022-11-12T12:58:49.858Z,101960.57
2022-11-12T13:04:23.346Z,101960.59
2022-11-12T13:10:31.785Z,101963.67
2022-11-12T13:16:09.792Z,101965.72
2022-11-12T13:21:38.147Z,101963.13
2022-11-12T13:27:02.002Z,101962.52
2022-11-12T13:32:37.505Z,101952.13
2022-11-12T13:38:08.463Z,101961.78
2022-11-12T13:43:35.940Z,101951.52
2022-11-12T13:49:10.829Z,101950.31
2022-11-12T13:54:36.356Z,101951.41
2022-11-12T14:00:25.623Z,101947.13
2022-11-12T14:05:48.937Z,101945.86
2022-11-12T14:11:24.234Z,101946.77
2022-11-12T14:16:59.279Z,101947.89
2022-11-12T14:22:30.333Z,101940.41
2022-11-12T14:27:55.497Z,101949.16
2022-11-12T14:33:19.220Z,101950.11
2022-11-12T14:38:47.406Z,101951.52
2022-11-12T14:44:18.143Z,101958.02
2022-11-12T14:49:45.429Z,101947.67
2022-11-12T14:55:14.858Z,101947.15
2022-11-12T15:00:47.035Z,101941.95
2022-11-12T15:06:12.450Z,101943.48
2022-11-12T15:11:46.973Z,101940.58
2022-11-12T15:17:27.602Z,101939.81
2022-11-12T15:22:51.495Z,101940.67
2022-11-12T15:28:24.623Z,101943.68
2022-11-12T15:33:55.546Z,101947.56
2022-11-12T15:39:30.485Z,101937.84
2022-11-12T15:45:26.506Z,101938.76
2022-11-12T15:50:52.914Z,101946.66
2022-11-12T15:56:25.362Z,101953.70
2022-11-12T16:01:54.383Z,101964.90
2022-11-12T16:07:17.833Z,101967.85
2022-11-12T16:12:42.386Z,101971.43
2022-11-12T16:18:04.979Z,101974.38
2022-11-12T16:23:27.553Z,101972.12
2022-11-12T16:28:55.555Z,101979.23
2022-11-12T16:34:22.048Z,101980.70
2022-11-12T16:39:52.296Z,101976.91
2022-11-12T16:45:23.450Z,101972.33
2022-11-12T16:50:45.486Z,101972.34
2022-11-12T16:56:22.361Z,101969.21
2022-11-12T17:01:44.927Z,101967.12
2022-11-12T17:07:07.599Z,101969.14
2022-11-12T17:12:32.849Z,101970.33
2022-11-12T17:17:59.971Z,101973.64
2022-11-12T17:23:31.916Z,101970.86
2022-11-12T17:29:01.236Z,101967.42
2022-11-12T17:34:27.339Z,101970.54
2022-11-12T17:39:52.603Z,101966.13
2022-11-12T17:45:17.415Z,101979.63
2022-11-12T17:50:41.771Z,101971.64
2022-11-12T17:56:05.170Z,101969.42
2022-11-12T18:01:30.406Z,101970.61
2022-11-12T18:06:52.637Z,101978.84
2022-11-12T18:12:20.534Z,101980.92
2022-11-12T18:17:42.774Z,101981.31
2022-11-12T18:23:05.783Z,101986.15
2022-11-12T18:28:30.000Z,101984.61
2022-11-12T18:33:53.769Z,101983.55
2022-11-12T18:39:20.099Z,101985.43
2022-11-12T18:44:48.534Z,101987.62
2022-11-12T18:50:11.576Z,101986.23
2022-11-12T18:55:36.709Z,101992.33
2022-11-12T19:01:09.983Z,101997.16
2022-11-12T19:06:32.059Z,101991.86
2022-11-12T19:11:55.029Z,101982.23
2022-11-12T19:17:20.595Z,101978.50
2022-11-12T19:22:51.310Z,101974.50
2022-11-12T19:28:13.301Z,101980.96
2022-11-12T19:33:35.915Z,101970.73
2022-11-12T19:39:02.938Z,101964.40
2022-11-12T19:44:25.127Z,101974.05
2022-11-12T19:50:04.511Z,101973.84
2022-11-12T19:55:28.830Z,101964.02
2022-11-12T20:00:52.087Z,101964.59
2022-11-12T20:06:19.417Z,101972.42
2022-11-12T20:11:50.926Z,101968.42
2022-11-12T20:17:18.122Z,101971.33
2022-11-12T20:22:54.019Z,101978.55
2022-11-12T20:28:16.334Z,101978.45
2022-11-12T20:33:45.925Z,101978.79
2022-11-12T20:39:10.650Z,101974.36
2022-11-12T20:44:41.766Z,101971.77
2022-11-12T20:50:05.009Z,101970.39
2022-11-12T20:55:27.636Z,101965.88
2022-11-12T21:00:54.133Z,101969.95
2022-11-12T21:06:22.278Z,101969.83
2022-11-12T21:11:46.067Z,101967.90
2022-11-12T21:17:12.829Z,101959.60
2022-11-12T21:22:38.590Z,101961.02
2022-11-12T21:28:08.040Z,101950.74
2022-11-12T21:33:29.912Z,101946.36
2022-11-12T21:38:52.069Z,101948.20
2022-11-12T21:44:20.493Z,101947.77
2022-11-12T21:49:42.536Z,101946.94
2022-11-12T21:55:11.152Z,101947.00
2022-11-12T22:00:42.767Z,101950.30
2022-11-12T22:06:07.155Z,101946.42
2022-11-12T22:11:30.198Z,101939.89
2022-11-12T22:16:52.272Z,101944.08
2022-11-12T22:22:14.184Z,101944.35
2022-11-12T22:27:37.675Z,101942.73
2022-11-12T22:33:00.201Z,101938.27
2022-11-12T22:38:22.577Z,101931.61
2022-11-12T22:43:53.905Z,101921.05
2022-11-12T22:49:20.612Z,101928.12
2022-11-12T22:54:54.899Z,101928.80
2022-11-12T23:00:22.024Z,101932.28
2022-11-12T23:05:54.642Z,101926.09
2022-11-12T23:11:19.702Z,101927.92
2022-11-12T23:16:50.896Z,101928.58
2022-11-12T23:22:16.496Z,101925.23
2022-11-12T23:27:38.656Z,101917.82
2022-11-12T23:33:03.109Z,101923.05
2022-11-12T23:38:27.007Z,101914.09
2022-11-12T23:43:53.175Z,101917.77
2022-11-12T23:49:15.340Z,101920.38
2022-11-12T23:54:37.705Z,101924.60
